sensor_id;sensor_type;location;lat;lon;timestamp;P1;durP1;ratioP1;P2;durP2;ratioP2
49139;SDS011;34959;49.310;8.646;2023-01-26T00:00:59;6.43;;;2.95;;
49139;SDS011;34959;49.310;8.646;2023-01-26T00:03:25;6.90;;;3.10;;
49139;SDS011;34959;49.310;8.646;2023-01-26T00:05:51;6.30;;;3.10;;
49139;SDS011;34959;49.310;8.646;2023-01-26T00:08:16;7.20;;;2.83;;
49139;SDS011;34959;49.310;8.646;2023-01-26T00:10:42;5.43;;;3.20;;
49139;SDS011;34959;49.310;8.646;2023-01-26T00:13:14;6.50;;;3.00;;
49139;SDS011;34959;49.310;8.646;2023-01-26T00:15:40;8.05;;;3.58;;
49139;SDS011;34959;49.310;8.646;2023-01-26T00:18:06;9.45;;;3.50;;
49139;SDS011;34959;49.310;8.646;2023-01-26T00:20:33;6.20;;;3.28;;
49139;SDS011;34959;49.310;8.646;2023-01-26T00:22:58;5.82;;;3.25;;
49139;SDS011;34959;49.310;8.646;2023-01-26T00:25:23;8.00;;;3.38;;
49139;SDS011;34959;49.310;8.646;2023-01-26T00:27:49;7.63;;;2.92;;
49139;SDS011;34959;49.310;8.646;2023-01-26T00:30:14;6.00;;;3.05;;
49139;SDS011;34959;49.310;8.646;2023-01-26T00:32:40;9.10;;;3.47;;
49139;SDS011;34959;49.310;8.646;2023-01-26T00:35:06;7.00;;;3.28;;
49139;SDS011;34959;49.310;8.646;2023-01-26T00:37:31;5.35;;;3.17;;
49139;SDS011;34959;49.310;8.646;2023-01-26T00:39:57;5.95;;;3.17;;
49139;SDS011;34959;49.310;8.646;2023-01-26T00:42:22;7.50;;;3.35;;
49139;SDS011;34959;49.310;8.646;2023-01-26T00:44:48;8.23;;;3.40;;
49139;SDS011;34959;49.310;8.646;2023-01-26T00:47:14;5.63;;;2.90;;
49139;SDS011;34959;49.310;8.646;2023-01-26T00:49:40;8.95;;;3.58;;
49139;SDS011;34959;49.310;8.646;2023-01-26T00:52:05;5.35;;;3.30;;
49139;SDS011;34959;49.310;8.646;2023-01-26T00:54:30;4.13;;;2.97;;
49139;SDS011;34959;49.310;8.646;2023-01-26T00:56:56;6.13;;;2.97;;
49139;SDS011;34959;49.310;8.646;2023-01-26T00:59:22;6.00;;;2.97;;
49139;SDS011;34959;49.310;8.646;2023-01-26T01:01:48;3.78;;;2.58;;
49139;SDS011;34959;49.310;8.646;2023-01-26T01:04:13;6.85;;;3.08;;
49139;SDS011;34959;49.310;8.646;2023-01-26T01:06:39;5.05;;;2.70;;
49139;SDS011;34959;49.310;8.646;2023-01-26T01:09:04;5.65;;;2.33;;
49139;SDS011;34959;49.310;8.646;2023-01-26T01:11:30;4.07;;;2.08;;
49139;SDS011;34959;49.310;8.646;2023-01-26T01:13:56;4.72;;;2.50;;
49139;SDS011;34959;49.310;8.646;2023-01-26T01:16:21;10.15;;;2.35;;
49139;SDS011;34959;49.310;8.646;2023-01-26T01:18:48;3.78;;;2.28;;
49139;SDS011;34959;49.310;8.646;2023-01-26T01:21:17;6.53;;;2.58;;
49139;SDS011;34959;49.310;8.646;2023-01-26T01:23:43;3.92;;;2.30;;
49139;SDS011;34959;49.310;8.646;2023-01-26T01:26:08;5.80;;;2.38;;
49139;SDS011;34959;49.310;8.646;2023-01-26T01:28:34;4.40;;;2.30;;
49139;SDS011;34959;49.310;8.646;2023-01-26T01:31:07;5.35;;;2.45;;
49139;SDS011;34959;49.310;8.646;2023-01-26T01:33:33;6.78;;;2.65;;
49139;SDS011;34959;49.310;8.646;2023-01-26T01:36:00;5.03;;;2.50;;
49139;SDS011;34959;49.310;8.646;2023-01-26T01:38:26;5.10;;;2.72;;
49139;SDS011;34959;49.310;8.646;2023-01-26T01:40:52;4.40;;;2.70;;
49139;SDS011;34959;49.310;8.646;2023-01-26T01:43:18;5.68;;;2.97;;
49139;SDS011;34959;49.310;8.646;2023-01-26T01:45:44;4.60;;;2.80;;
49139;SDS011;34959;49.310;8.646;2023-01-26T01:50:42;5.07;;;3.00;;
49139;SDS011;34959;49.310;8.646;2023-01-26T01:53:09;5.93;;;2.90;;
49139;SDS011;34959;49.310;8.646;2023-01-26T01:55:38;5.95;;;2.90;;
49139;SDS011;34959;49.310;8.646;2023-01-26T01:58:04;4.15;;;2.67;;
49139;SDS011;34959;49.310;8.646;2023-01-26T02:00:31;6.13;;;2.85;;
49139;SDS011;34959;49.310;8.646;2023-01-26T02:02:57;4.63;;;2.63;;
49139;SDS011;34959;49.310;8.646;2023-01-26T02:08:08;5.00;;;3.20;;
49139;SDS011;34959;49.310;8.646;2023-01-26T02:10:35;4.38;;;3.00;;
49139;SDS011;34959;49.310;8.646;2023-01-26T02:13:01;5.72;;;3.08;;
49139;SDS011;34959;49.310;8.646;2023-01-26T02:15:26;4.05;;;2.78;;
49139;SDS011;34959;49.310;8.646;2023-01-26T02:17:52;5.07;;;3.30;;
49139;SDS011;34959;49.310;8.646;2023-01-26T02:25:43;5.22;;;3.35;;
49139;SDS011;34959;49.310;8.646;2023-01-26T02:28:20;4.70;;;2.63;;
49139;SDS011;34959;49.310;8.646;2023-01-26T02:30:46;4.72;;;3.17;;
49139;SDS011;34959;49.310;8.646;2023-01-26T02:33:26;4.85;;;3.00;;
49139;SDS011;34959;49.310;8.646;2023-01-26T02:35:52;4.35;;;2.95;;
49139;SDS011;34959;49.310;8.646;2023-01-26T02:38:18;5.90;;;2.90;;
49139;SDS011;34959;49.310;8.646;2023-01-26T02:43:18;4.75;;;2.80;;
49139;SDS011;34959;49.310;8.646;2023-01-26T02:45:44;4.70;;;2.97;;
49139;SDS011;34959;49.310;8.646;2023-01-26T02:48:10;6.38;;;3.20;;
49139;SDS011;34959;49.310;8.646;2023-01-26T02:50:35;4.82;;;3.20;;
49139;SDS011;34959;49.310;8.646;2023-01-26T02:53:01;4.57;;;3.08;;
49139;SDS011;34959;49.310;8.646;2023-01-26T02:55:27;5.00;;;2.83;;
49139;SDS011;34959;49.310;8.646;2023-01-26T02:57:56;3.83;;;2.47;;
49139;SDS011;34959;49.310;8.646;2023-01-26T03:02:51;4.93;;;2.90;;
49139;SDS011;34959;49.310;8.646;2023-01-26T03:05:17;3.38;;;2.60;;
49139;SDS011;34959;49.310;8.646;2023-01-26T03:07:43;3.95;;;3.00;;
49139;SDS011;34959;49.310;8.646;2023-01-26T03:10:08;4.25;;;3.17;;
49139;SDS011;34959;49.310;8.646;2023-01-26T03:12:34;5.55;;;3.38;;
49139;SDS011;34959;49.310;8.646;2023-01-26T03:15:00;4.05;;;2.90;;
49139;SDS011;34959;49.310;8.646;2023-01-26T03:17:44;4.80;;;3.13;;
49139;SDS011;34959;49.310;8.646;2023-01-26T03:20:09;5.88;;;3.22;;
49139;SDS011;34959;49.310;8.646;2023-01-26T03:22:53;5.47;;;3.20;;
49139;SDS011;34959;49.310;8.646;2023-01-26T03:25:38;5.47;;;2.63;;
49139;SDS011;34959;49.310;8.646;2023-01-26T03:28:23;3.75;;;2.72;;
49139;SDS011;34959;49.310;8.646;2023-01-26T03:30:49;5.10;;;3.05;;
49139;SDS011;34959;49.310;8.646;2023-01-26T03:33:15;5.05;;;3.00;;
49139;SDS011;34959;49.310;8.646;2023-01-26T03:35:41;3.83;;;2.97;;
49139;SDS011;34959;49.310;8.646;2023-01-26T03:38:06;3.72;;;2.90;;
49139;SDS011;34959;49.310;8.646;2023-01-26T03:40:32;4.45;;;2.72;;
49139;SDS011;34959;49.310;8.646;2023-01-26T03:43:16;4.03;;;3.08;;
49139;SDS011;34959;49.310;8.646;2023-01-26T03:46:03;5.82;;;2.90;;
49139;SDS011;34959;49.310;8.646;2023-01-26T03:48:48;4.82;;;3.10;;
49139;SDS011;34959;49.310;8.646;2023-01-26T03:51:33;6.35;;;3.38;;
49139;SDS011;34959;49.310;8.646;2023-01-26T03:54:17;4.03;;;2.63;;
49139;SDS011;34959;49.310;8.646;2023-01-26T03:57:01;5.72;;;2.92;;
49139;SDS011;34959;49.310;8.646;2023-01-26T03:59:26;4.65;;;3.13;;
49139;SDS011;34959;49.310;8.646;2023-01-26T04:02:08;4.90;;;3.00;;
49139;SDS011;34959;49.310;8.646;2023-01-26T04:04:53;5.93;;;2.92;;
49139;SDS011;34959;49.310;8.646;2023-01-26T04:07:37;3.88;;;2.65;;
49139;SDS011;34959;49.310;8.646;2023-01-26T04:10:22;8.50;;;3.15;;
49139;SDS011;34959;49.310;8.646;2023-01-26T04:12:48;3.90;;;2.75;;
49139;SDS011;34959;49.310;8.646;2023-01-26T04:15:32;3.97;;;2.85;;
49139;SDS011;34959;49.310;8.646;2023-01-26T04:18:18;4.05;;;2.83;;
49139;SDS011;34959;49.310;8.646;2023-01-26T04:21:02;4.70;;;2.72;;
49139;SDS011;34959;49.310;8.646;2023-01-26T04:23:47;3.83;;;2.55;;
49139;SDS011;34959;49.310;8.646;2023-01-26T04:26:13;3.88;;;2.58;;
49139;SDS011;34959;49.310;8.646;2023-01-26T04:28:38;3.45;;;2.65;;
49139;SDS011;34959;49.310;8.646;2023-01-26T04:31:04;5.30;;;2.22;;
49139;SDS011;34959;49.310;8.646;2023-01-26T04:33:30;3.70;;;2.30;;
49139;SDS011;34959;49.310;8.646;2023-01-26T04:35:55;5.97;;;3.05;;
49139;SDS011;34959;49.310;8.646;2023-01-26T04:38:21;5.95;;;3.13;;
49139;SDS011;34959;49.310;8.646;2023-01-26T04:40:53;5.50;;;2.90;;
49139;SDS011;34959;49.310;8.646;2023-01-26T04:45:44;4.30;;;2.60;;
49139;SDS011;34959;49.310;8.646;2023-01-26T04:48:09;4.38;;;2.63;;
49139;SDS011;34959;49.310;8.646;2023-01-26T04:50:34;4.93;;;2.90;;
49139;SDS011;34959;49.310;8.646;2023-01-26T04:53:00;4.13;;;2.70;;
49139;SDS011;34959;49.310;8.646;2023-01-26T04:55:25;4.65;;;2.60;;
49139;SDS011;34959;49.310;8.646;2023-01-26T04:57:51;4.75;;;2.90;;
49139;SDS011;34959;49.310;8.646;2023-01-26T05:00:16;3.40;;;2.33;;
49139;SDS011;34959;49.310;8.646;2023-01-26T05:02:42;3.40;;;2.40;;
49139;SDS011;34959;49.310;8.646;2023-01-26T05:05:07;8.60;;;3.65;;
49139;SDS011;34959;49.310;8.646;2023-01-26T05:07:33;4.18;;;2.40;;
49139;SDS011;34959;49.310;8.646;2023-01-26T05:09:58;4.85;;;2.58;;
49139;SDS011;34959;49.310;8.646;2023-01-26T05:12:24;4.72;;;2.72;;
49139;SDS011;34959;49.310;8.646;2023-01-26T05:14:58;3.78;;;3.03;;
49139;SDS011;34959;49.310;8.646;2023-01-26T05:17:24;3.97;;;2.50;;
49139;SDS011;34959;49.310;8.646;2023-01-26T05:19:49;3.85;;;2.70;;
49139;SDS011;34959;49.310;8.646;2023-01-26T05:22:15;3.90;;;2.58;;
49139;SDS011;34959;49.310;8.646;2023-01-26T05:24:40;3.05;;;2.50;;
49139;SDS011;34959;49.310;8.646;2023-01-26T05:27:05;4.30;;;2.90;;
49139;SDS011;34959;49.310;8.646;2023-01-26T05:29:46;5.47;;;2.90;;
49139;SDS011;34959;49.310;8.646;2023-01-26T05:32:15;4.68;;;3.08;;
49139;SDS011;34959;49.310;8.646;2023-01-26T05:34:40;5.57;;;2.80;;
49139;SDS011;34959;49.310;8.646;2023-01-26T05:37:06;5.60;;;2.75;;
49139;SDS011;34959;49.310;8.646;2023-01-26T05:39:31;4.30;;;2.67;;
49139;SDS011;34959;49.310;8.646;2023-01-26T05:41:56;8.75;;;3.05;;
49139;SDS011;34959;49.310;8.646;2023-01-26T05:44:22;6.50;;;2.53;;
49139;SDS011;34959;49.310;8.646;2023-01-26T05:46:51;5.28;;;2.75;;
49139;SDS011;34959;49.310;8.646;2023-01-26T05:49:19;3.53;;;2.70;;
49139;SDS011;34959;49.310;8.646;2023-01-26T05:51:44;4.30;;;2.75;;
49139;SDS011;34959;49.310;8.646;2023-01-26T05:54:10;4.30;;;2.60;;
49139;SDS011;34959;49.310;8.646;2023-01-26T05:56:35;4.95;;;2.92;;
49139;SDS011;34959;49.310;8.646;2023-01-26T05:59:01;4.25;;;2.72;;
49139;SDS011;34959;49.310;8.646;2023-01-26T06:01:26;4.43;;;2.85;;
49139;SDS011;34959;49.310;8.646;2023-01-26T06:03:52;3.88;;;2.72;;
49139;SDS011;34959;49.310;8.646;2023-01-26T06:06:18;4.03;;;2.92;;
49139;SDS011;34959;49.310;8.646;2023-01-26T06:08:44;4.10;;;2.60;;
49139;SDS011;34959;49.310;8.646;2023-01-26T06:11:09;3.75;;;2.65;;
49139;SDS011;34959;49.310;8.646;2023-01-26T06:13:34;3.85;;;2.53;;
49139;SDS011;34959;49.310;8.646;2023-01-26T06:16:00;3.10;;;2.33;;
49139;SDS011;34959;49.310;8.646;2023-01-26T06:18:26;3.90;;;2.58;;
49139;SDS011;34959;49.310;8.646;2023-01-26T06:20:51;4.40;;;2.83;;
49139;SDS011;34959;49.310;8.646;2023-01-26T06:23:17;4.38;;;2.78;;
49139;SDS011;34959;49.310;8.646;2023-01-26T06:25:42;3.40;;;2.28;;
49139;SDS011;34959;49.310;8.646;2023-01-26T06:28:08;3.83;;;2.80;;
49139;SDS011;34959;49.310;8.646;2023-01-26T06:30:33;3.80;;;2.47;;
49139;SDS011;34959;49.310;8.646;2023-01-26T06:32:59;3.40;;;2.35;;
49139;SDS011;34959;49.310;8.646;2023-01-26T06:35:25;4.20;;;2.70;;
49139;SDS011;34959;49.310;8.646;2023-01-26T06:37:53;3.67;;;2.38;;
49139;SDS011;34959;49.310;8.646;2023-01-26T06:40:18;4.00;;;2.78;;
49139;SDS011;34959;49.310;8.646;2023-01-26T06:42:47;3.70;;;2.60;;
49139;SDS011;34959;49.310;8.646;2023-01-26T06:45:14;3.92;;;2.60;;
49139;SDS011;34959;49.310;8.646;2023-01-26T06:47:43;3.75;;;2.45;;
49139;SDS011;34959;49.310;8.646;2023-01-26T06:50:10;4.15;;;2.50;;
49139;SDS011;34959;49.310;8.646;2023-01-26T06:52:35;3.95;;;2.67;;
49139;SDS011;34959;49.310;8.646;2023-01-26T06:55:01;3.30;;;2.55;;
49139;SDS011;34959;49.310;8.646;2023-01-26T06:57:27;3.00;;;2.40;;
49139;SDS011;34959;49.310;8.646;2023-01-26T06:59:53;3.47;;;2.58;;
49139;SDS011;34959;49.310;8.646;2023-01-26T07:02:20;3.65;;;2.65;;
49139;SDS011;34959;49.310;8.646;2023-01-26T07:04:46;3.75;;;2.40;;
49139;SDS011;34959;49.310;8.646;2023-01-26T07:07:12;6.68;;;2.70;;
49139;SDS011;34959;49.310;8.646;2023-01-26T07:09:37;3.72;;;2.60;;
49139;SDS011;34959;49.310;8.646;2023-01-26T07:12:03;4.07;;;2.80;;
49139;SDS011;34959;49.310;8.646;2023-01-26T07:14:30;3.88;;;2.50;;
49139;SDS011;34959;49.310;8.646;2023-01-26T07:16:56;5.80;;;2.45;;
49139;SDS011;34959;49.310;8.646;2023-01-26T07:19:21;3.55;;;2.30;;
49139;SDS011;34959;49.310;8.646;2023-01-26T07:21:46;4.40;;;2.33;;
49139;SDS011;34959;49.310;8.646;2023-01-26T07:24:13;3.97;;;2.42;;
49139;SDS011;34959;49.310;8.646;2023-01-26T07:26:38;4.80;;;2.40;;
49139;SDS011;34959;49.310;8.646;2023-01-26T07:29:04;4.55;;;2.20;;
49139;SDS011;34959;49.310;8.646;2023-01-26T07:31:29;3.92;;;2.53;;
49139;SDS011;34959;49.310;8.646;2023-01-26T07:33:54;3.80;;;2.30;;
49139;SDS011;34959;49.310;8.646;2023-01-26T07:36:20;4.35;;;2.50;;
49139;SDS011;34959;49.310;8.646;2023-01-26T07:38:45;5.78;;;2.75;;
49139;SDS011;34959;49.310;8.646;2023-01-26T07:41:11;3.55;;;2.40;;
49139;SDS011;34959;49.310;8.646;2023-01-26T07:43:37;3.60;;;2.15;;
49139;SDS011;34959;49.310;8.646;2023-01-26T07:46:03;3.72;;;2.10;;
49139;SDS011;34959;49.310;8.646;2023-01-26T07:48:29;3.67;;;2.28;;
49139;SDS011;34959;49.310;8.646;2023-01-26T07:50:58;3.45;;;2.35;;
49139;SDS011;34959;49.310;8.646;2023-01-26T07:53:25;3.38;;;2.20;;
49139;SDS011;34959;49.310;8.646;2023-01-26T07:55:53;3.35;;;2.08;;
49139;SDS011;34959;49.310;8.646;2023-01-26T07:58:21;3.50;;;2.10;;
49139;SDS011;34959;49.310;8.646;2023-01-26T08:00:46;3.47;;;2.70;;
49139;SDS011;34959;49.310;8.646;2023-01-26T08:03:12;3.25;;;2.20;;
49139;SDS011;34959;49.310;8.646;2023-01-26T08:05:38;2.80;;;2.20;;
49139;SDS011;34959;49.310;8.646;2023-01-26T08:08:06;5.95;;;2.83;;
49139;SDS011;34959;49.310;8.646;2023-01-26T08:10:33;3.70;;;2.22;;
49139;SDS011;34959;49.310;8.646;2023-01-26T08:12:59;3.80;;;2.47;;
49139;SDS011;34959;49.310;8.646;2023-01-26T08:15:25;3.70;;;2.10;;
49139;SDS011;34959;49.310;8.646;2023-01-26T08:17:54;5.70;;;2.42;;
49139;SDS011;34959;49.310;8.646;2023-01-26T08:20:20;2.70;;;2.05;;
49139;SDS011;34959;49.310;8.646;2023-01-26T08:22:45;4.38;;;2.53;;
49139;SDS011;34959;49.310;8.646;2023-01-26T08:25:11;4.65;;;2.58;;
49139;SDS011;34959;49.310;8.646;2023-01-26T08:27:36;3.70;;;2.30;;
49139;SDS011;34959;49.310;8.646;2023-01-26T08:30:02;5.20;;;2.17;;
49139;SDS011;34959;49.310;8.646;2023-01-26T08:32:28;5.50;;;2.20;;
49139;SDS011;34959;49.310;8.646;2023-01-26T08:34:54;4.72;;;2.10;;
49139;SDS011;34959;49.310;8.646;2023-01-26T08:37:19;3.35;;;2.10;;
49139;SDS011;34959;49.310;8.646;2023-01-26T08:39:45;3.60;;;2.20;;
49139;SDS011;34959;49.310;8.646;2023-01-26T08:42:10;5.00;;;2.20;;
49139;SDS011;34959;49.310;8.646;2023-01-26T08:44:35;3.65;;;2.47;;
49139;SDS011;34959;49.310;8.646;2023-01-26T08:47:01;3.55;;;2.25;;
49139;SDS011;34959;49.310;8.646;2023-01-26T08:49:26;3.65;;;2.42;;
49139;SDS011;34959;49.310;8.646;2023-01-26T08:51:52;4.50;;;2.35;;
49139;SDS011;34959;49.310;8.646;2023-01-26T08:54:17;3.03;;;2.03;;
49139;SDS011;34959;49.310;8.646;2023-01-26T08:56:43;4.30;;;2.38;;
49139;SDS011;34959;49.310;8.646;2023-01-26T08:59:11;4.10;;;2.50;;
49139;SDS011;34959;49.310;8.646;2023-01-26T09:01:37;4.00;;;2.45;;
49139;SDS011;34959;49.310;8.646;2023-01-26T09:04:02;4.45;;;2.25;;
49139;SDS011;34959;49.310;8.646;2023-01-26T09:06:27;2.90;;;2.08;;
49139;SDS011;34959;49.310;8.646;2023-01-26T09:08:54;3.30;;;2.15;;
49139;SDS011;34959;49.310;8.646;2023-01-26T09:11:19;3.95;;;1.90;;
49139;SDS011;34959;49.310;8.646;2023-01-26T09:13:48;3.55;;;2.45;;
49139;SDS011;34959;49.310;8.646;2023-01-26T09:16:21;3.10;;;2.13;;
49139;SDS011;34959;49.310;8.646;2023-01-26T09:18:53;3.92;;;2.22;;
49139;SDS011;34959;49.310;8.646;2023-01-26T09:21:19;2.75;;;1.85;;
49139;SDS011;34959;49.310;8.646;2023-01-26T09:23:44;3.25;;;1.98;;
49139;SDS011;34959;49.310;8.646;2023-01-26T09:26:10;2.28;;;1.85;;
49139;SDS011;34959;49.310;8.646;2023-01-26T09:28:35;3.63;;;2.30;;
49139;SDS011;34959;49.310;8.646;2023-01-26T09:31:02;14.60;;;3.67;;
49139;SDS011;34959;49.310;8.646;2023-01-26T09:33:29;8.45;;;6.35;;
49139;SDS011;34959;49.310;8.646;2023-01-26T09:35:54;7.07;;;5.68;;
49139;SDS011;34959;49.310;8.646;2023-01-26T09:38:19;8.18;;;5.72;;
49139;SDS011;34959;49.310;8.646;2023-01-26T09:43:20;7.57;;;4.82;;
49139;SDS011;34959;49.310;8.646;2023-01-26T09:48:25;4.65;;;3.30;;
49139;SDS011;34959;49.310;8.646;2023-01-26T09:51:02;4.10;;;2.85;;
49139;SDS011;34959;49.310;8.646;2023-01-26T09:56:21;3.83;;;2.72;;
49139;SDS011;34959;49.310;8.646;2023-01-26T09:58:51;4.20;;;2.40;;
49139;SDS011;34959;49.310;8.646;2023-01-26T10:01:37;3.75;;;2.53;;
49139;SDS011;34959;49.310;8.646;2023-01-26T10:04:09;4.10;;;2.05;;
49139;SDS011;34959;49.310;8.646;2023-01-26T10:06:40;3.33;;;2.25;;
49139;SDS011;34959;49.310;8.646;2023-01-26T10:09:11;3.72;;;2.13;;
49139;SDS011;34959;49.310;8.646;2023-01-26T10:11:41;3.38;;;2.08;;
49139;SDS011;34959;49.310;8.646;2023-01-26T10:14:17;5.18;;;2.50;;
49139;SDS011;34959;49.310;8.646;2023-01-26T10:16:46;3.05;;;2.00;;
49139;SDS011;34959;49.310;8.646;2023-01-26T10:19:15;3.10;;;2.13;;
49139;SDS011;34959;49.310;8.646;2023-01-26T10:21:46;3.40;;;1.92;;
49139;SDS011;34959;49.310;8.646;2023-01-26T10:24:13;3.10;;;1.98;;
49139;SDS011;34959;49.310;8.646;2023-01-26T10:26:41;2.70;;;1.50;;
49139;SDS011;34959;49.310;8.646;2023-01-26T10:29:10;4.18;;;1.90;;
49139;SDS011;34959;49.310;8.646;2023-01-26T10:31:39;2.85;;;1.77;;
49139;SDS011;34959;49.310;8.646;2023-01-26T10:34:24;3.15;;;1.70;;
49139;SDS011;34959;49.310;8.646;2023-01-26T10:36:50;2.47;;;1.67;;
49139;SDS011;34959;49.310;8.646;2023-01-26T10:39:20;2.90;;;1.88;;
49139;SDS011;34959;49.310;8.646;2023-01-26T10:41:56;2.55;;;1.58;;
49139;SDS011;34959;49.310;8.646;2023-01-26T10:47:01;2.03;;;1.50;;
49139;SDS011;34959;49.310;8.646;2023-01-26T10:49:29;2.25;;;1.55;;
49139;SDS011;34959;49.310;8.646;2023-01-26T10:52:13;2.13;;;1.40;;
49139;SDS011;34959;49.310;8.646;2023-01-26T10:54:46;2.40;;;1.65;;
49139;SDS011;34959;49.310;8.646;2023-01-26T10:59:47;3.25;;;1.40;;
49139;SDS011;34959;49.310;8.646;2023-01-26T11:04:39;3.47;;;1.42;;
49139;SDS011;34959;49.310;8.646;2023-01-26T11:07:23;1.95;;;1.42;;
49139;SDS011;34959;49.310;8.646;2023-01-26T11:09:49;1.95;;;1.50;;
49139;SDS011;34959;49.310;8.646;2023-01-26T11:12:17;3.13;;;1.50;;
49139;SDS011;34959;49.310;8.646;2023-01-26T11:14:58;2.13;;;1.52;;
49139;SDS011;34959;49.310;8.646;2023-01-26T11:17:25;2.05;;;1.27;;
49139;SDS011;34959;49.310;8.646;2023-01-26T11:20:27;5.05;;;1.60;;
49139;SDS011;34959;49.310;8.646;2023-01-26T11:23:09;3.95;;;1.20;;
49139;SDS011;34959;49.310;8.646;2023-01-26T11:31:04;3.83;;;1.77;;
49139;SDS011;34959;49.310;8.646;2023-01-26T11:39:17;3.17;;;1.13;;
49139;SDS011;34959;49.310;8.646;2023-01-26T11:50:32;2.75;;;1.48;;
49139;SDS011;34959;49.310;8.646;2023-01-26T11:55:45;1.40;;;1.08;;
49139;SDS011;34959;49.310;8.646;2023-01-26T11:58:38;1.75;;;1.20;;
49139;SDS011;34959;49.310;8.646;2023-01-26T12:01:06;4.85;;;1.45;;
49139;SDS011;34959;49.310;8.646;2023-01-26T12:06:06;3.63;;;1.30;;
49139;SDS011;34959;49.310;8.646;2023-01-26T12:08:40;6.25;;;1.17;;
49139;SDS011;34959;49.310;8.646;2023-01-26T12:13:56;2.00;;;1.10;;
49139;SDS011;34959;49.310;8.646;2023-01-26T12:16:33;3.45;;;1.10;;
49139;SDS011;34959;49.310;8.646;2023-01-26T12:19:14;1.58;;;1.00;;
49139;SDS011;34959;49.310;8.646;2023-01-26T12:22:13;1.50;;;1.08;;
49139;SDS011;34959;49.310;8.646;2023-01-26T12:24:44;3.95;;;1.10;;
49139;SDS011;34959;49.310;8.646;2023-01-26T12:27:23;2.75;;;1.00;;
49139;SDS011;34959;49.310;8.646;2023-01-26T12:32:17;2.78;;;1.00;;
49139;SDS011;34959;49.310;8.646;2023-01-26T12:34:43;6.00;;;1.17;;
49139;SDS011;34959;49.310;8.646;2023-01-26T12:42:46;1.65;;;1.00;;
49139;SDS011;34959;49.310;8.646;2023-01-26T12:45:15;2.67;;;1.13;;
49139;SDS011;34959;49.310;8.646;2023-01-26T12:47:45;1.92;;;0.88;;
49139;SDS011;34959;49.310;8.646;2023-01-26T12:52:59;1.92;;;1.02;;
49139;SDS011;34959;49.310;8.646;2023-01-26T12:55:38;1.42;;;0.90;;
49139;SDS011;34959;49.310;8.646;2023-01-26T12:58:09;2.25;;;1.00;;
49139;SDS011;34959;49.310;8.646;2023-01-26T13:00:38;2.03;;;0.77;;
49139;SDS011;34959;49.310;8.646;2023-01-26T13:03:12;3.80;;;1.10;;
49139;SDS011;34959;49.310;8.646;2023-01-26T13:06:02;3.60;;;1.17;;
49139;SDS011;34959;49.310;8.646;2023-01-26T13:10:55;1.63;;;1.02;;
49139;SDS011;34959;49.310;8.646;2023-01-26T13:13:27;2.67;;;1.00;;
49139;SDS011;34959;49.310;8.646;2023-01-26T13:18:49;2.65;;;1.00;;
49139;SDS011;34959;49.310;8.646;2023-01-26T13:21:28;1.73;;;0.90;;
49139;SDS011;34959;49.310;8.646;2023-01-26T13:26:54;1.80;;;1.27;;
49139;SDS011;34959;49.310;8.646;2023-01-26T13:31:49;1.20;;;0.82;;
49139;SDS011;34959;49.310;8.646;2023-01-26T13:34:31;1.35;;;1.00;;
49139;SDS011;34959;49.310;8.646;2023-01-26T13:37:04;1.83;;;1.02;;
49139;SDS011;34959;49.310;8.646;2023-01-26T13:39:34;1.95;;;1.05;;
49139;SDS011;34959;49.310;8.646;2023-01-26T13:42:00;1.70;;;0.88;;
49139;SDS011;34959;49.310;8.646;2023-01-26T13:44:33;1.00;;;0.80;;
49139;SDS011;34959;49.310;8.646;2023-01-26T13:47:06;1.33;;;0.82;;
49139;SDS011;34959;49.310;8.646;2023-01-26T13:49:38;2.05;;;1.20;;
49139;SDS011;34959;49.310;8.646;2023-01-26T13:52:18;1.38;;;0.80;;
49139;SDS011;34959;49.310;8.646;2023-01-26T13:54:45;2.38;;;1.02;;
49139;SDS011;34959;49.310;8.646;2023-01-26T13:57:11;3.28;;;1.00;;
49139;SDS011;34959;49.310;8.646;2023-01-26T13:59:47;1.38;;;0.90;;
49139;SDS011;34959;49.310;8.646;2023-01-26T14:02:24;2.25;;;0.82;;
49139;SDS011;34959;49.310;8.646;2023-01-26T14:04:57;1.23;;;0.85;;
49139;SDS011;34959;49.310;8.646;2023-01-26T14:07:25;1.83;;;0.82;;
49139;SDS011;34959;49.310;8.646;2023-01-26T14:09:53;1.50;;;0.80;;
49139;SDS011;34959;49.310;8.646;2023-01-26T14:12:30;2.30;;;0.70;;
49139;SDS011;34959;49.310;8.646;2023-01-26T14:14:59;1.10;;;0.90;;
49139;SDS011;34959;49.310;8.646;2023-01-26T14:17:28;1.83;;;1.00;;
49139;SDS011;34959;49.310;8.646;2023-01-26T14:19:58;2.20;;;0.90;;
49139;SDS011;34959;49.310;8.646;2023-01-26T14:22:24;1.50;;;0.93;;
49139;SDS011;34959;49.310;8.646;2023-01-26T14:24:50;2.95;;;0.90;;
49139;SDS011;34959;49.310;8.646;2023-01-26T14:27:30;0.80;;;0.80;;
49139;SDS011;34959;49.310;8.646;2023-01-26T14:29:58;1.67;;;1.00;;
49139;SDS011;34959;49.310;8.646;2023-01-26T14:32:24;1.80;;;0.90;;
49139;SDS011;34959;49.310;8.646;2023-01-26T14:35:02;1.45;;;0.90;;
49139;SDS011;34959;49.310;8.646;2023-01-26T14:37:28;1.00;;;0.77;;
49139;SDS011;34959;49.310;8.646;2023-01-26T14:40:13;1.65;;;0.73;;
49139;SDS011;34959;49.310;8.646;2023-01-26T14:42:40;1.30;;;0.95;;
49139;SDS011;34959;49.310;8.646;2023-01-26T14:45:10;1.55;;;0.90;;
49139;SDS011;34959;49.310;8.646;2023-01-26T14:47:37;1.42;;;0.88;;
49139;SDS011;34959;49.310;8.646;2023-01-26T14:50:09;1.45;;;0.80;;
49139;SDS011;34959;49.310;8.646;2023-01-26T14:52:41;2.20;;;1.10;;
49139;SDS011;34959;49.310;8.646;2023-01-26T14:57:52;1.88;;;1.23;;
49139;SDS011;34959;49.310;8.646;2023-01-26T15:00:23;1.42;;;0.82;;
49139;SDS011;34959;49.310;8.646;2023-01-26T15:02:58;1.80;;;0.80;;
49139;SDS011;34959;49.310;8.646;2023-01-26T15:05:34;1.95;;;0.80;;
49139;SDS011;34959;49.310;8.646;2023-01-26T15:08:02;1.58;;;0.98;;
49139;SDS011;34959;49.310;8.646;2023-01-26T15:13:05;1.42;;;0.80;;
49139;SDS011;34959;49.310;8.646;2023-01-26T15:15:38;2.22;;;0.90;;
49139;SDS011;34959;49.310;8.646;2023-01-26T15:23:27;1.10;;;0.80;;
49139;SDS011;34959;49.310;8.646;2023-01-26T15:25:54;0.98;;;0.73;;
49139;SDS011;34959;49.310;8.646;2023-01-26T15:28:24;1.83;;;0.80;;
49139;SDS011;34959;49.310;8.646;2023-01-26T15:30:50;1.63;;;0.80;;
49139;SDS011;34959;49.310;8.646;2023-01-26T15:36:03;1.10;;;0.80;;
49139;SDS011;34959;49.310;8.646;2023-01-26T15:38:29;1.55;;;0.77;;
49139;SDS011;34959;49.310;8.646;2023-01-26T15:40:54;1.52;;;1.10;;
49139;SDS011;34959;49.310;8.646;2023-01-26T15:43:20;1.10;;;0.75;;
49139;SDS011;34959;49.310;8.646;2023-01-26T15:45:49;1.02;;;0.88;;
49139;SDS011;34959;49.310;8.646;2023-01-26T15:48:16;1.70;;;1.00;;
49139;SDS011;34959;49.310;8.646;2023-01-26T15:50:42;1.75;;;0.90;;
49139;SDS011;34959;49.310;8.646;2023-01-26T15:53:14;1.60;;;0.88;;
49139;SDS011;34959;49.310;8.646;2023-01-26T15:55:41;1.25;;;0.88;;
49139;SDS011;34959;49.310;8.646;2023-01-26T15:58:08;1.55;;;0.82;;
49139;SDS011;34959;49.310;8.646;2023-01-26T16:00:36;2.10;;;0.88;;
49139;SDS011;34959;49.310;8.646;2023-01-26T16:03:02;1.42;;;0.88;;
49139;SDS011;34959;49.310;8.646;2023-01-26T16:05:31;1.65;;;0.95;;
49139;SDS011;34959;49.310;8.646;2023-01-26T16:07:58;1.33;;;0.80;;
49139;SDS011;34959;49.310;8.646;2023-01-26T16:10:23;1.48;;;0.90;;
49139;SDS011;34959;49.310;8.646;2023-01-26T16:12:49;1.48;;;0.98;;
49139;SDS011;34959;49.310;8.646;2023-01-26T16:17:48;2.15;;;0.88;;
49139;SDS011;34959;49.310;8.646;2023-01-26T16:20:14;1.00;;;0.70;;
49139;SDS011;34959;49.310;8.646;2023-01-26T16:22:39;1.23;;;0.80;;
49139;SDS011;34959;49.310;8.646;2023-01-26T16:25:15;1.00;;;0.70;;
49139;SDS011;34959;49.310;8.646;2023-01-26T16:27:47;0.82;;;0.77;;
49139;SDS011;34959;49.310;8.646;2023-01-26T16:30:13;1.02;;;0.73;;
49139;SDS011;34959;49.310;8.646;2023-01-26T16:32:38;1.30;;;0.90;;
49139;SDS011;34959;49.310;8.646;2023-01-26T16:35:14;1.13;;;0.95;;
49139;SDS011;34959;49.310;8.646;2023-01-26T16:37:41;1.60;;;1.08;;